createdAt,value
2018-09-26T00:00:51.794Z,1010.11
2018-09-26T00:01:51.802Z,1010.12
2018-09-26T00:02:51.775Z,1010.08
2018-09-26T00:03:51.770Z,1010.07
2018-09-26T00:04:51.760Z,1010.05
2018-09-26T00:05:51.756Z,1010.07
2018-09-26T00:06:51.748Z,1010
2018-09-26T00:07:51.745Z,1010.01
2018-09-26T00:08:51.738Z,1010.01
2018-09-26T00:09:51.732Z,1009.97
2018-09-26T00:10:51.723Z,1009.98
2018-09-26T00:11:51.716Z,1010.03
2018-09-26T00:12:51.708Z,1010
2018-09-26T00:13:51.702Z,1010.02
2018-09-26T00:14:51.700Z,1010.07
2018-09-26T00:15:51.691Z,1010.08
2018-09-26T00:16:51.692Z,1010.08
2018-09-26T00:17:51.674Z,1010.08
2018-09-26T00:18:51.670Z,1010.08
2018-09-26T00:19:51.663Z,1010.04
2018-09-26T00:20:51.656Z,1010.04
2018-09-26T00:21:51.663Z,1010.01
2018-09-26T00:22:51.648Z,1009.98
2018-09-26T00:23:51.637Z,1010.01
2018-09-26T00:24:51.637Z,1010.01
2018-09-26T00:25:51.622Z,1009.99
2018-09-26T00:26:51.617Z,1010.05
2018-09-26T00:27:51.608Z,1010.04
2018-09-26T00:28:51.601Z,1010.01
2018-09-26T00:29:51.595Z,1009.99
2018-09-26T00:30:51.595Z,1009.92
2018-09-26T00:31:51.580Z,1009.92
2018-09-26T00:32:51.576Z,1009.92
2018-09-26T00:33:51.574Z,1009.9
2018-09-26T00:34:51.559Z,1009.88
2018-09-26T00:35:51.670Z,1009.82
2018-09-26T00:36:51.568Z,1009.77
2018-09-26T00:37:51.549Z,1009.74
2018-09-26T00:38:51.533Z,1009.67
2018-09-26T00:39:51.524Z,1009.64
2018-09-26T00:40:51.517Z,1009.66
2018-09-26T00:41:51.539Z,1009.67
2018-09-26T00:42:51.505Z,1009.65
2018-09-26T00:43:51.513Z,1009.62
2018-09-26T00:44:51.502Z,1009.62
2018-09-26T00:45:51.483Z,1009.61
2018-09-26T00:46:51.480Z,1009.57
2018-09-26T00:47:51.469Z,1009.55
2018-09-26T00:48:51.464Z,1009.57
2018-09-26T00:49:51.458Z,1009.58
2018-09-26T00:50:51.451Z,1009.6
2018-09-26T00:51:51.445Z,1009.59
2018-09-26T00:52:51.435Z,1009.57
2018-09-26T00:53:51.448Z,1009.57
2018-09-26T00:54:51.422Z,1009.53
2018-09-26T00:55:51.415Z,1009.46
2018-09-26T00:56:51.408Z,1009.41
2018-09-26T00:57:51.402Z,1009.39
2018-09-26T00:58:51.394Z,1009.36
2018-09-26T00:59:51.392Z,1009.3
2018-09-26T01:00:51.379Z,1009.23
2018-09-26T01:01:51.375Z,1009.18
2018-09-26T01:02:51.367Z,1009.19
2018-09-26T01:03:51.360Z,1009.16
2018-09-26T01:04:51.368Z,1009.13
2018-09-26T01:05:51.343Z,1009.12
2018-09-26T01:06:51.336Z,1009.06
2018-09-26T01:07:51.330Z,1009.07
2018-09-26T01:08:51.322Z,1009.08
2018-09-26T01:09:51.326Z,1009.08
2018-09-26T01:10:51.307Z,1009.06
2018-09-26T01:11:51.300Z,1009.12
2018-09-26T01:12:51.295Z,1009.13
2018-09-26T01:13:51.288Z,1009.19
2018-09-26T01:14:51.281Z,1009.21
2018-09-26T01:15:51.276Z,1009.26
2018-09-26T01:16:51.273Z,1009.28
2018-09-26T01:17:51.261Z,1009.22
2018-09-26T01:18:51.255Z,1009.18
2018-09-26T01:19:51.246Z,1009.19
2018-09-26T01:20:51.239Z,1009.17
2018-09-26T01:21:51.230Z,1009.15
2018-09-26T01:22:51.222Z,1009.14
2018-09-26T01:23:51.228Z,1009.07
2018-09-26T01:24:51.213Z,1009.07
2018-09-26T01:25:51.202Z,1009.02
2018-09-26T01:26:51.193Z,1009.04
2018-09-26T01:27:51.189Z,1009
2018-09-26T01:28:51.185Z,1008.97
2018-09-26T01:29:51.172Z,1009
2018-09-26T01:30:51.166Z,1008.98
2018-09-26T01:31:51.160Z,1008.96
2018-09-26T01:32:51.150Z,1008.93
2018-09-26T01:33:51.142Z,1008.98
2018-09-26T01:34:51.134Z,1008.96
2018-09-26T01:35:51.133Z,1008.95
2018-09-26T01:36:51.122Z,1008.96
2018-09-26T01:37:51.115Z,1008.92
2018-09-26T01:38:51.109Z,1008.92
2018-09-26T01:39:51.098Z,1008.94
2018-09-26T01:40:51.095Z,1008.93
2018-09-26T01:41:51.088Z,1008.96
2018-09-26T01:42:51.079Z,1008.98
2018-09-26T01:43:51.073Z,1009
2018-09-26T01:44:51.064Z,1009
2018-09-26T01:45:51.057Z,1009.01
2018-09-26T01:46:51.051Z,1009.01
2018-09-26T01:47:51.042Z,1008.98
2018-09-26T01:48:51.035Z,1009.05
2018-09-26T01:49:51.027Z,1009.03
2018-09-26T01:50:51.019Z,1009
2018-09-26T01:51:51.012Z,1009.03
2018-09-26T01:52:51.005Z,1008.96
2018-09-26T01:53:51.027Z,1009.01
2018-09-26T01:54:50.992Z,1009.03
2018-09-26T01:55:51.010Z,1009
2018-09-26T01:56:50.979Z,1008.99
2018-09-26T01:57:50.973Z,1008.94
2018-09-26T01:58:50.967Z,1008.91
2018-09-26T01:59:50.962Z,1008.91
2018-09-26T02:00:50.950Z,1008.96
2018-09-26T02:01:50.949Z,1008.9
2018-09-26T02:02:50.949Z,1008.93
2018-09-26T02:03:50.924Z,1008.93
2018-09-26T02:04:50.918Z,1008.94
2018-09-26T02:05:50.911Z,1008.92
2018-09-26T02:06:50.907Z,1008.9
2018-09-26T02:07:50.907Z,1008.94
2018-09-26T02:08:50.892Z,1008.9
2018-09-26T02:09:50.882Z,1008.85
2018-09-26T02:10:50.877Z,1008.89
2018-09-26T02:11:50.865Z,1008.87
2018-09-26T02:12:50.864Z,1008.88
2018-09-26T02:13:50.860Z,1008.85
2018-09-26T02:14:50.844Z,1008.81
2018-09-26T02:15:50.833Z,1008.86
2018-09-26T02:16:50.825Z,1008.86
2018-09-26T02:17:50.833Z,1008.87
2018-09-26T02:18:50.813Z,1008.87
2018-09-26T02:19:50.805Z,1008.88
2018-09-26T02:20:50.797Z,1008.88
2018-09-26T02:21:50.795Z,1008.82
2018-09-26T02:22:50.781Z,1008.86
2018-09-26T02:23:50.777Z,1008.84
2018-09-26T02:24:50.767Z,1008.85
2018-09-26T02:25:50.757Z,1008.87
2018-09-26T02:26:50.751Z,1008.92
2018-09-26T02:27:50.742Z,1008.94
2018-09-26T02:28:50.736Z,1009
2018-09-26T02:29:50.727Z,1009.01
2018-09-26T02:30:50.722Z,1009
2018-09-26T02:31:50.716Z,1009.01
2018-09-26T02:32:50.708Z,1009.03
2018-09-26T02:33:50.699Z,1008.98
2018-09-26T02:34:50.689Z,1008.97
2018-09-26T02:35:50.681Z,1008.97
2018-09-26T02:36:50.678Z,1008.99
2018-09-26T02:37:50.682Z,1009
2018-09-26T02:38:50.666Z,1008.99
2018-09-26T02:39:50.661Z,1008.98
2018-09-26T02:40:50.642Z,1008.97
2018-09-26T02:41:50.637Z,1008.96
2018-09-26T02:42:50.629Z,1008.93
2018-09-26T02:43:50.619Z,1008.95
2018-09-26T02:44:50.615Z,1008.93
2018-09-26T02:45:50.604Z,1008.93
2018-09-26T02:46:50.602Z,1008.95
2018-09-26T02:47:50.589Z,1008.98
2018-09-26T02:48:50.586Z,1008.92
2018-09-26T02:49:50.572Z,1008.92
2018-09-26T02:50:50.574Z,1008.9
2018-09-26T02:51:50.565Z,1008.88
2018-09-26T02:52:50.551Z,1008.84
2018-09-26T02:53:50.542Z,1008.82
2018-09-26T02:54:50.536Z,1008.78
2018-09-26T02:55:50.615Z,1008.8
2018-09-26T02:56:50.524Z,1008.8
2018-09-26T02:57:50.513Z,1008.82
2018-09-26T02:58:50.508Z,1008.83
2018-09-26T02:59:50.504Z,1008.89
2018-09-26T03:00:50.489Z,1008.91
2018-09-26T03:01:50.479Z,1008.93
2018-09-26T03:02:50.473Z,1008.94
2018-09-26T03:03:50.464Z,1008.95
2018-09-26T03:04:50.460Z,1009.02
2018-09-26T03:05:50.448Z,1009.03
2018-09-26T03:06:50.440Z,1009.05
2018-09-26T03:07:50.445Z,1008.97
2018-09-26T03:08:50.427Z,1008.98
2018-09-26T03:09:50.427Z,1008.96
2018-09-26T03:10:50.506Z,1008.97
2018-09-26T03:11:50.401Z,1008.91
2018-09-26T03:12:50.409Z,1008.91
2018-09-26T03:13:50.391Z,1008.89
2018-09-26T03:14:50.380Z,1008.89
2018-09-26T03:15:50.371Z,1008.82
2018-09-26T03:16:50.359Z,1008.81
2018-09-26T03:17:50.353Z,1008.77
2018-09-26T03:18:50.346Z,1008.75
2018-09-26T03:19:50.337Z,1008.73
2018-09-26T03:20:50.329Z,1008.7
2018-09-26T03:21:50.337Z,1008.7
2018-09-26T03:22:50.320Z,1008.64
2018-09-26T03:23:50.306Z,1008.69
2018-09-26T03:24:50.302Z,1008.68
2018-09-26T03:25:50.291Z,1008.67
2018-09-26T03:26:50.281Z,1008.65
2018-09-26T03:27:50.322Z,1008.61
2018-09-26T03:28:50.268Z,1008.61
2018-09-26T03:29:50.256Z,1008.66
2018-09-26T03:30:50.277Z,1008.65
2018-09-26T03:31:50.242Z,1008.59
2018-09-26T03:32:50.236Z,1008.62
2018-09-26T03:33:50.307Z,1008.61
2018-09-26T03:34:50.226Z,1008.62
2018-09-26T03:35:50.211Z,1008.62
2018-09-26T03:36:50.242Z,1008.62
2018-09-26T03:37:50.245Z,1008.6
2018-09-26T03:38:50.192Z,1008.56
2018-09-26T03:39:50.176Z,1008.53
2018-09-26T03:40:50.170Z,1008.54
2018-09-26T03:41:50.187Z,1008.52
2018-09-26T03:42:50.155Z,1008.49
2018-09-26T03:43:50.144Z,1008.49
2018-09-26T03:44:50.145Z,1008.49
2018-09-26T03:45:50.129Z,1008.44
2018-09-26T03:46:50.125Z,1008.45
2018-09-26T03:47:50.117Z,1008.45
2018-09-26T03:48:50.106Z,1008.4
2018-09-26T03:49:50.099Z,1008.43
2018-09-26T03:50:50.092Z,1008.4
2018-09-26T03:51:50.081Z,1008.28
2018-09-26T03:52:50.073Z,1008.3
2018-09-26T03:53:50.076Z,1008.29
2018-09-26T03:54:50.073Z,1008.25
2018-09-26T03:55:50.053Z,1008.2
2018-09-26T03:56:50.042Z,1008.16
2018-09-26T03:57:50.030Z,1008.13
2018-09-26T03:58:50.024Z,1008.11
2018-09-26T03:59:50.015Z,1008.08
2018-09-26T04:00:50.017Z,1008.07
2018-09-26T04:01:50.012Z,1008.1
2018-09-26T04:02:49.990Z,1008.05
2018-09-26T04:03:49.980Z,1008.06
2018-09-26T04:04:50.011Z,1008.05
2018-09-26T04:05:49.968Z,1008.04
2018-09-26T04:06:49.957Z,1008.1
2018-09-26T04:07:49.949Z,1008.07
2018-09-26T04:08:49.945Z,1007.99
2018-09-26T04:09:49.946Z,1007.96
2018-09-26T04:10:49.933Z,1007.89
2018-09-26T04:11:49.916Z,1007.87
2018-09-26T04:12:49.994Z,1007.87
2018-09-26T04:13:49.905Z,1007.88
2018-09-26T04:14:49.891Z,1007.95
2018-09-26T04:15:49.956Z,1007.92
2018-09-26T04:16:49.875Z,1007.98
2018-09-26T04:17:49.868Z,1008
2018-09-26T04:18:49.867Z,1007.96
2018-09-26T04:19:49.854Z,1007.97
2018-09-26T04:20:49.841Z,1008
2018-09-26T04:21:49.840Z,1007.98
2018-09-26T04:22:49.829Z,1008.01
2018-09-26T04:23:49.835Z,1008
2018-09-26T04:24:49.810Z,1008.01
2018-09-26T04:25:49.816Z,1007.96
2018-09-26T04:26:49.970Z,1007.94
2018-09-26T04:27:49.836Z,1007.95
2018-09-26T04:28:49.781Z,1007.99
2018-09-26T04:29:49.774Z,1008.04
2018-09-26T04:30:49.771Z,1008.08
2018-09-26T04:31:49.750Z,1008.15
2018-09-26T04:32:49.895Z,1008.19
2018-09-26T04:33:49.746Z,1008.24
2018-09-26T04:34:49.746Z,1008.26
2018-09-26T04:35:49.724Z,1008.22
2018-09-26T04:36:49.710Z,1008.27
2018-09-26T04:37:49.712Z,1008.28
2018-09-26T04:38:49.832Z,1008.3
2018-09-26T04:39:49.686Z,1008.34
2018-09-26T04:40:49.686Z,1008.32
2018-09-26T04:41:49.681Z,1008.31
2018-09-26T04:42:49.663Z,1008.32
2018-09-26T04:43:49.655Z,1008.25
2018-09-26T04:44:49.652Z,1008.23
2018-09-26T04:45:49.637Z,1008.23
2018-09-26T04:46:49.633Z,1008.27
2018-09-26T04:47:49.625Z,1008.3
2018-09-26T04:48:49.617Z,1008.26
2018-09-26T04:49:49.602Z,1008.32
2018-09-26T04:50:49.661Z,1008.31
2018-09-26T04:51:49.590Z,1008.3
2018-09-26T04:52:49.582Z,1008.31
2018-09-26T04:53:49.571Z,1008.29
2018-09-26T04:54:49.564Z,1008.31
2018-09-26T04:55:49.557Z,1008.35
2018-09-26T04:56:49.545Z,1008.42
2018-09-26T04:57:49.579Z,1008.39
2018-09-26T04:58:49.529Z,1008.43
2018-09-26T04:59:49.522Z,1008.46
2018-09-26T05:00:49.528Z,1008.45
2018-09-26T05:01:49.504Z,1008.5
2018-09-26T05:02:49.494Z,1008.55
2018-09-26T05:03:49.488Z,1008.57
2018-09-26T05:04:49.479Z,1008.58
2018-09-26T05:05:49.471Z,1008.63
2018-09-26T05:06:49.463Z,1008.64
2018-09-26T05:07:49.455Z,1008.64
2018-09-26T05:08:49.457Z,1008.62
2018-09-26T05:09:49.442Z,1008.66
2018-09-26T05:10:49.429Z,1008.73
2018-09-26T05:11:49.427Z,1008.76
2018-09-26T05:12:49.416Z,1008.75
2018-09-26T05:13:49.406Z,1008.78
2018-09-26T05:14:49.451Z,1008.8
2018-09-26T05:15:49.390Z,1008.81
2018-09-26T05:16:49.391Z,1008.76
2018-09-26T05:17:49.371Z,1008.74
2018-09-26T05:18:49.372Z,1008.73
2018-09-26T05:19:49.354Z,1008.75
2018-09-26T05:20:49.355Z,1008.79
2018-09-26T05:21:49.338Z,1008.86
2018-09-26T05:22:49.332Z,1008.88
2018-09-26T05:23:49.321Z,1008.92
2018-09-26T05:24:49.315Z,1008.91
2018-09-26T05:25:49.304Z,1008.91
2018-09-26T05:26:49.297Z,1008.92
2018-09-26T05:27:49.293Z,1008.9
2018-09-26T05:28:49.279Z,1008.89
2018-09-26T05:29:49.281Z,1008.91
2018-09-26T05:30:49.269Z,1008.89
2018-09-26T05:31:49.255Z,1008.89
2018-09-26T05:32:49.248Z,1008.78
2018-09-26T05:33:49.236Z,1008.82
2018-09-26T05:34:49.231Z,1008.75
2018-09-26T05:35:49.243Z,1008.69
2018-09-26T05:36:49.213Z,1008.65
2018-09-26T05:37:49.206Z,1008.67
2018-09-26T05:38:49.201Z,1008.68
2018-09-26T05:39:49.187Z,1008.67
2018-09-26T05:40:49.180Z,1008.62
2018-09-26T05:41:49.270Z,1008.57
2018-09-26T05:42:49.163Z,1008.56
2018-09-26T05:43:49.159Z,1008.59
2018-09-26T05:44:49.167Z,1008.57
2018-09-26T05:45:49.141Z,1008.55
2018-09-26T05:46:49.132Z,1008.5
2018-09-26T05:47:49.124Z,1008.5
2018-09-26T05:48:49.116Z,1008.47
2018-09-26T05:49:49.108Z,1008.46
2018-09-26T05:50:49.105Z,1008.48
2018-09-26T05:51:49.093Z,1008.47
2018-09-26T05:52:49.090Z,1008.47
2018-09-26T05:53:49.078Z,1008.48
2018-09-26T05:54:49.069Z,1008.46
2018-09-26T05:55:49.065Z,1008.43
2018-09-26T05:56:49.056Z,1008.46
2018-09-26T05:57:49.053Z,1008.49
2018-09-26T05:58:49.038Z,1008.52
2018-09-26T05:59:49.031Z,1008.52
2018-09-26T06:00:49.022Z,1008.6
2018-09-26T06:01:49.016Z,1008.63
2018-09-26T06:02:49.008Z,1008.61
2018-09-26T06:03:49.000Z,1008.62
2018-09-26T06:04:48.992Z,1008.61
2018-09-26T06:05:48.993Z,1008.63
2018-09-26T06:06:48.980Z,1008.6
2018-09-26T06:07:48.979Z,1008.59
2018-09-26T06:08:48.963Z,1008.63
2018-09-26T06:09:48.959Z,1008.6
2018-09-26T06:10:48.950Z,1008.61
2018-09-26T06:11:48.950Z,1008.65
2018-09-26T06:12:49.005Z,1008.64
2018-09-26T06:13:48.926Z,1008.58
2018-09-26T06:14:48.926Z,1008.56
2018-09-26T06:15:48.920Z,1008.57
2018-09-26T06:16:48.904Z,1008.51
2018-09-26T06:17:48.894Z,1008.5
2018-09-26T06:18:48.947Z,1008.48
2018-09-26T06:19:48.890Z,1008.45
2018-09-26T06:20:48.876Z,1008.44
2018-09-26T06:21:48.870Z,1008.5
2018-09-26T06:22:48.862Z,1008.48
2018-09-26T06:23:48.853Z,1008.48
2018-09-26T06:24:48.869Z,1008.49
2018-09-26T06:25:48.842Z,1008.49
2018-09-26T06:26:48.838Z,1008.48
2018-09-26T06:27:48.838Z,1008.49
2018-09-26T06:28:48.818Z,1008.5
2018-09-26T06:29:48.813Z,1008.56
2018-09-26T06:30:48.804Z,1008.58
2018-09-26T06:31:48.797Z,1008.6
2018-09-26T06:32:48.792Z,1008.59
2018-09-26T06:33:48.789Z,1008.6
2018-09-26T06:34:48.810Z,1008.6
2018-09-26T06:35:48.775Z,1008.58
2018-09-26T06:36:48.764Z,1008.58
2018-09-26T06:37:48.758Z,1008.6
2018-09-26T06:38:48.751Z,1008.65
2018-09-26T06:39:48.748Z,1008.65
2018-09-26T06:40:48.740Z,1008.67
2018-09-26T06:41:48.734Z,1008.66
2018-09-26T06:42:48.730Z,1008.64
2018-09-26T06:43:48.725Z,1008.65
2018-09-26T06:44:48.718Z,1008.62
2018-09-26T06:45:48.710Z,1008.64
2018-09-26T06:46:48.707Z,1008.66
2018-09-26T06:47:48.706Z,1008.7
2018-09-26T06:48:48.704Z,1008.7
2018-09-26T06:49:48.689Z,1008.7
2018-09-26T06:50:48.684Z,1008.71
2018-09-26T06:51:48.683Z,1008.73
2018-09-26T06:52:48.677Z,1008.76
2018-09-26T06:53:48.664Z,1008.77
2018-09-26T06:54:48.662Z,1008.78
2018-09-26T06:55:48.657Z,1008.79
2018-09-26T06:56:48.651Z,1008.86
2018-09-26T06:57:48.659Z,1008.8
2018-09-26T06:58:48.639Z,1008.84
2018-09-26T06:59:48.635Z,1008.82
2018-09-26T07:00:48.631Z,1008.83
2018-09-26T07:01:48.626Z,1008.8
2018-09-26T07:02:48.623Z,1008.82
2018-09-26T07:03:48.618Z,1008.82
2018-09-26T07:04:48.616Z,1008.82
2018-09-26T07:05:48.613Z,1008.84
2018-09-26T07:06:48.609Z,1008.83
2018-09-26T07:07:48.611Z,1008.82
2018-09-26T07:08:48.608Z,1008.85
2018-09-26T07:09:48.608Z,1008.83
2018-09-26T07:10:48.605Z,1008.81
2018-09-26T07:11:48.607Z,1008.79
2018-09-26T07:12:48.610Z,1008.76
2018-09-26T07:13:48.604Z,1008.77
2018-09-26T07:14:48.607Z,1008.73
2018-09-26T07:15:48.606Z,1008.72
2018-09-26T07:16:48.609Z,1008.73
2018-09-26T07:17:48.608Z,1008.75
2018-09-26T07:18:48.609Z,1008.78
2018-09-26T07:19:48.607Z,1008.75
2018-09-26T07:20:48.607Z,1008.79
2018-09-26T07:21:48.609Z,1008.8
2018-09-26T07:22:48.610Z,1008.8
2018-09-26T07:23:48.641Z,1008.78
2018-09-26T07:24:48.614Z,1008.79
2018-09-26T07:25:48.614Z,1008.81
2018-09-26T07:26:48.615Z,1008.79
2018-09-26T07:27:48.633Z,1008.83
2018-09-26T07:28:48.619Z,1008.83
2018-09-26T07:29:48.634Z,1008.85
2018-09-26T07:30:48.623Z,1008.87
2018-09-26T07:31:48.623Z,1008.85
2018-09-26T07:32:48.630Z,1008.87
2018-09-26T07:34:48.632Z,1008.84
2018-09-26T07:35:48.643Z,1008.85
2018-09-26T07:36:48.642Z,1008.84
2018-09-26T07:37:48.639Z,1008.91
2018-09-26T07:38:48.650Z,1008.84
2018-09-26T07:39:48.647Z,1008.87
2018-09-26T07:40:48.645Z,1008.89
2018-09-26T07:41:48.649Z,1008.89
2018-09-26T07:42:48.654Z,1008.89
2018-09-26T07:43:48.654Z,1008.95
2018-09-26T07:44:48.669Z,1008.92
2018-09-26T07:45:48.767Z,1009
2018-09-26T07:46:48.662Z,1009.01
2018-09-26T07:47:48.666Z,1009.03
2018-09-26T07:48:48.668Z,1009.05
2018-09-26T07:49:48.670Z,1009.05
2018-09-26T07:50:48.676Z,1009.03
2018-09-26T07:51:48.677Z,1009.02
2018-09-26T07:52:48.677Z,1009
2018-09-26T07:53:48.680Z,1009.03
2018-09-26T07:54:48.681Z,1009.07
2018-09-26T07:55:48.685Z,1009.02
2018-09-26T07:56:48.684Z,1009.03
2018-09-26T07:57:48.687Z,1009.03
2018-09-26T07:58:48.691Z,1009.04
2018-09-26T07:59:48.723Z,1009.06
2018-09-26T08:00:48.696Z,1009.06
2018-09-26T08:01:48.695Z,1009.08
2018-09-26T08:02:48.698Z,1009.09
2018-09-26T08:03:48.698Z,1009.06
2018-09-26T08:04:48.713Z,1009.1
2018-09-26T08:05:48.726Z,1009.08
2018-09-26T08:06:48.711Z,1009.08
2018-09-26T08:07:48.708Z,1009.04
2018-09-26T08:08:48.708Z,1009.03
2018-09-26T08:09:48.720Z,1008.97
2018-09-26T08:10:48.715Z,1008.96
2018-09-26T08:11:48.784Z,1008.94
2018-09-26T08:12:48.715Z,1008.88
2018-09-26T08:13:48.722Z,1008.84
2018-09-26T08:14:48.722Z,1008.84
2018-09-26T08:15:48.742Z,1008.87
2018-09-26T08:16:48.724Z,1008.94
2018-09-26T08:17:48.734Z,1008.94
2018-09-26T08:18:48.725Z,1008.95
2018-09-26T08:19:48.732Z,1008.96
2018-09-26T08:20:48.730Z,1008.98
2018-09-26T08:21:48.730Z,1008.98
2018-09-26T08:22:48.738Z,1009.01
2018-09-26T08:23:48.811Z,1009.02
2018-09-26T08:24:48.735Z,1009
2018-09-26T08:25:48.733Z,1008.95
2018-09-26T08:26:48.731Z,1009
2018-09-26T08:27:48.743Z,1008.99
2018-09-26T08:28:48.733Z,1008.96
2018-09-26T08:29:48.795Z,1009
2018-09-26T08:30:48.733Z,1009.04
2018-09-26T08:31:48.734Z,1009.04
2018-09-26T08:32:48.736Z,1009.07
2018-09-26T08:33:48.733Z,1009.03
2018-09-26T08:34:48.731Z,1009.06
2018-09-26T08:35:48.732Z,1009.03
2018-09-26T08:36:48.732Z,1008.97
2018-09-26T08:37:48.731Z,1008.94
2018-09-26T08:38:48.732Z,1008.95
2018-09-26T08:39:48.731Z,1008.93
2018-09-26T08:40:48.728Z,1008.94
2018-09-26T08:41:48.729Z,1008.93
2018-09-26T08:42:48.727Z,1008.88
2018-09-26T08:43:48.756Z,1008.89
2018-09-26T08:44:48.724Z,1008.86
2018-09-26T08:45:48.733Z,1008.82
2018-09-26T08:46:48.725Z,1008.87
2018-09-26T08:47:48.725Z,1008.87
2018-09-26T08:48:48.725Z,1008.86
2018-09-26T08:49:48.725Z,1008.86
2018-09-26T08:50:48.718Z,1008.93
2018-09-26T08:51:48.721Z,1008.94
2018-09-26T08:52:48.723Z,1008.93
2018-09-26T08:53:48.755Z,1008.89
2018-09-26T08:54:48.718Z,1008.94
2018-09-26T08:55:48.717Z,1008.91
2018-09-26T08:56:48.715Z,1008.9
2018-09-26T08:57:48.722Z,1008.86
2018-09-26T08:58:48.712Z,1008.88
2018-09-26T08:59:48.768Z,1008.86
2018-09-26T09:00:48.714Z,1008.86
2018-09-26T09:01:48.709Z,1008.79
2018-09-26T09:02:48.714Z,1008.82
2018-09-26T09:03:48.706Z,1008.79
2018-09-26T09:04:48.710Z,1008.77
2018-09-26T09:05:48.708Z,1008.77
2018-09-26T09:06:48.705Z,1008.79
2018-09-26T09:07:48.707Z,1008.79
2018-09-26T09:08:48.706Z,1008.77
2018-09-26T09:09:48.715Z,1008.78
2018-09-26T09:10:48.699Z,1008.78
2018-09-26T09:11:48.828Z,1008.77
2018-09-26T09:12:48.694Z,1008.73
2018-09-26T09:13:48.702Z,1008.73
2018-09-26T09:14:48.925Z,1008.76
2018-09-26T09:15:48.689Z,1008.8
2018-09-26T09:16:48.699Z,1008.81
2018-09-26T09:17:48.749Z,1008.82
2018-09-26T09:18:48.686Z,1008.85
2018-09-26T09:19:48.684Z,1008.81
2018-09-26T09:20:48.682Z,1008.86
2018-09-26T09:21:48.709Z,1008.86
2018-09-26T09:22:48.679Z,1008.95
2018-09-26T09:23:48.678Z,1008.93
2018-09-26T09:24:48.678Z,1008.99
2018-09-26T09:25:48.675Z,1009.01
2018-09-26T09:27:48.679Z,1008.96
2018-09-26T09:28:48.674Z,1008.95
2018-09-26T09:29:48.670Z,1008.95
2018-09-26T09:30:48.673Z,1008.96
2018-09-26T09:31:48.663Z,1008.87
2018-09-26T09:32:48.663Z,1008.86
2018-09-26T09:33:48.658Z,1008.82
2018-09-26T09:34:48.657Z,1008.84
2018-09-26T09:35:48.665Z,1008.86
2018-09-26T09:36:48.656Z,1008.85
2018-09-26T09:37:48.654Z,1008.85
2018-09-26T09:38:48.650Z,1008.77
2018-09-26T09:39:48.651Z,1008.73
2018-09-26T09:40:48.647Z,1008.69
2018-09-26T09:41:48.645Z,1008.67
2018-09-26T09:42:48.646Z,1008.66
2018-09-26T09:43:48.646Z,1008.67
2018-09-26T09:44:48.642Z,1008.71
2018-09-26T09:45:48.639Z,1008.67
2018-09-26T09:46:48.701Z,1008.68
2018-09-26T09:47:48.641Z,1008.64
2018-09-26T09:48:48.640Z,1008.68
2018-09-26T09:49:48.643Z,1008.65
2018-09-26T09:50:48.636Z,1008.68
2018-09-26T09:51:48.638Z,1008.62
2018-09-26T09:52:48.639Z,1008.65
2018-09-26T09:53:48.633Z,1008.66
2018-09-26T09:54:48.633Z,1008.7
2018-09-26T09:55:48.633Z,1008.72
2018-09-26T09:56:48.631Z,1008.74
2018-09-26T09:57:48.652Z,1008.75
2018-09-26T09:58:48.629Z,1008.75
2018-09-26T09:59:48.629Z,1008.76
2018-09-26T10:00:48.626Z,1008.72
2018-09-26T10:01:48.624Z,1008.68
2018-09-26T10:02:48.650Z,1008.69
2018-09-26T10:03:48.632Z,1008.65
2018-09-26T10:04:48.620Z,1008.69
2018-09-26T10:05:51.075Z,1008.67
2018-09-26T10:06:48.616Z,1008.66
2018-09-26T10:07:48.618Z,1008.67
2018-09-26T10:08:48.707Z,1008.66
2018-09-26T10:09:48.617Z,1008.66
2018-09-26T10:10:48.616Z,1008.64
2018-09-26T10:11:48.618Z,1008.67
2018-09-26T10:12:48.655Z,1008.64
2018-09-26T10:13:48.616Z,1008.66
2018-09-26T10:14:48.617Z,1008.66
2018-09-26T10:15:48.620Z,1008.64
2018-09-26T10:16:48.609Z,1008.6
2018-09-26T10:17:48.615Z,1008.53
2018-09-26T10:18:48.608Z,1008.57
2018-09-26T10:19:48.606Z,1008.54
2018-09-26T10:20:48.605Z,1008.61
2018-09-26T10:21:48.605Z,1008.57
2018-09-26T10:22:48.604Z,1008.63
2018-09-26T10:23:48.600Z,1008.65
2018-09-26T10:24:48.613Z,1008.6
2018-09-26T10:25:48.608Z,1008.66
2018-09-26T10:26:48.598Z,1008.63
2018-09-26T10:27:48.595Z,1008.62
2018-09-26T10:28:48.596Z,1008.63
2018-09-26T10:29:48.594Z,1008.65
2018-09-26T10:30:48.594Z,1008.63
2018-09-26T10:31:48.593Z,1008.61
2018-09-26T10:32:48.593Z,1008.61
2018-09-26T10:33:48.593Z,1008.6
2018-09-26T10:34:48.630Z,1008.53
2018-09-26T10:35:48.589Z,1008.47
2018-09-26T10:36:48.591Z,1008.44
2018-09-26T10:37:48.589Z,1008.39
2018-09-26T10:38:48.589Z,1008.36
2018-09-26T10:39:48.607Z,1008.33
2018-09-26T10:40:48.614Z,1008.37
2018-09-26T10:41:48.588Z,1008.31
2018-09-26T10:42:48.588Z,1008.3
2018-09-26T10:43:48.587Z,1008.29
2018-09-26T10:44:48.584Z,1008.29
2018-09-26T10:45:48.583Z,1008.26
2018-09-26T10:46:48.605Z,1008.28
2018-09-26T10:47:48.586Z,1008.26
2018-09-26T10:48:48.584Z,1008.24
2018-09-26T10:49:48.582Z,1008.27
2018-09-26T10:50:48.582Z,1008.25
2018-09-26T10:51:48.587Z,1008.32
2018-09-26T10:52:48.581Z,1008.32
2018-09-26T10:53:48.581Z,1008.3
2018-09-26T10:54:48.582Z,1008.28
2018-09-26T10:55:48.584Z,1008.26
2018-09-26T10:56:48.674Z,1008.28
2018-09-26T10:57:48.580Z,1008.29
2018-09-26T10:58:48.580Z,1008.25
2018-09-26T10:59:48.580Z,1008.26
2018-09-26T11:00:48.579Z,1008.24
2018-09-26T11:01:48.579Z,1008.19
2018-09-26T11:02:48.581Z,1008.21
2018-09-26T11:03:48.575Z,1008.21
2018-09-26T11:04:48.575Z,1008.2
2018-09-26T11:05:48.576Z,1008.24
2018-09-26T11:06:48.574Z,1008.18
2018-09-26T11:07:48.574Z,1008.14
2018-09-26T11:08:48.577Z,1008.1
2018-09-26T11:09:48.580Z,1008.09
2018-09-26T11:10:48.574Z,1008.09
2018-09-26T11:11:48.593Z,1008.05
2018-09-26T11:12:48.592Z,1008.06
2018-09-26T11:13:48.573Z,1008.05
2018-09-26T11:14:48.572Z,1008.02
2018-09-26T11:15:48.573Z,1008.03
2018-09-26T11:16:48.573Z,1008
2018-09-26T11:17:48.573Z,1008.02
2018-09-26T11:18:48.626Z,1007.96
2018-09-26T11:19:48.572Z,1007.97
2018-09-26T11:20:48.572Z,1007.97
2018-09-26T11:21:48.571Z,1007.92
2018-09-26T11:22:48.571Z,1007.92
2018-09-26T11:23:48.579Z,1007.88
2018-09-26T11:24:48.571Z,1007.86
2018-09-26T11:25:48.574Z,1007.85
2018-09-26T11:26:48.571Z,1007.81
2018-09-26T11:27:48.575Z,1007.88
2018-09-26T11:28:48.571Z,1007.88
2018-09-26T11:29:48.579Z,1007.8
2018-09-26T11:30:48.590Z,1007.82
2018-09-26T11:31:48.641Z,1007.82
2018-09-26T11:32:48.572Z,1007.8
2018-09-26T11:33:48.651Z,1007.76
2018-09-26T11:34:48.572Z,1007.76
2018-09-26T11:35:48.575Z,1007.76
2018-09-26T11:36:48.591Z,1007.75
2018-09-26T11:37:48.614Z,1007.76
2018-09-26T11:38:48.575Z,1007.7
2018-09-26T11:39:48.585Z,1007.74
2018-09-26T11:40:48.575Z,1007.72
2018-09-26T11:41:48.596Z,1007.68
2018-09-26T11:42:48.576Z,1007.74
2018-09-26T11:43:48.582Z,1007.7
2018-09-26T11:44:48.724Z,1007.72
2018-09-26T11:45:48.584Z,1007.69
2018-09-26T11:46:48.580Z,1007.74
2018-09-26T11:47:48.583Z,1007.69
2018-09-26T11:48:48.580Z,1007.67
2018-09-26T11:49:48.580Z,1007.69
2018-09-26T11:50:48.579Z,1007.7
2018-09-26T11:51:48.635Z,1007.68
2018-09-26T11:52:48.576Z,1007.66
2018-09-26T11:53:48.574Z,1007.64
2018-09-26T11:54:48.581Z,1007.61
2018-09-26T11:55:48.617Z,1007.54
2018-09-26T11:56:48.575Z,1007.51
2018-09-26T11:57:48.589Z,1007.52
2018-09-26T11:58:48.572Z,1007.54
2018-09-26T11:59:48.580Z,1007.54
2018-09-26T12:00:48.577Z,1007.56
2018-09-26T12:01:48.580Z,1007.54
2018-09-26T12:02:48.673Z,1007.48
2018-09-26T12:03:48.589Z,1007.52
2018-09-26T12:04:48.599Z,1007.55
2018-09-26T12:05:48.579Z,1007.55
2018-09-26T12:06:48.576Z,1007.55
2018-09-26T12:07:48.594Z,1007.55
2018-09-26T12:08:48.578Z,1007.5
2018-09-26T12:09:48.577Z,1007.47
2018-09-26T12:10:48.578Z,1007.51
2018-09-26T12:11:48.578Z,1007.51